sensor_id;sensor_type;location;lat;lon;timestamp;pressure;altitude;pressure_sealevel;temperature;humidity
24440;BME280;12618;54.386;18.394;2023-06-22T00:00:33;99783.85;;;19.28;100.00
24440;BME280;12618;54.386;18.394;2023-06-22T00:03:04;99784.28;;;19.27;100.00
24440;BME280;12618;54.386;18.394;2023-06-22T00:05:36;99787.65;;;19.23;100.00
24440;BME280;12618;54.386;18.394;2023-06-22T00:08:08;99788.65;;;19.17;100.00
24440;BME280;12618;54.386;18.394;2023-06-22T00:10:40;99783.88;;;19.14;100.00
24440;BME280;12618;54.386;18.394;2023-06-22T00:13:12;99782.13;;;19.12;100.00
24440;BME280;12618;54.386;18.394;2023-06-22T00:15:45;99783.42;;;19.09;100.00
24440;BME280;12618;54.386;18.394;2023-06-22T00:18:17;99786.30;;;19.07;100.00
24440;BME280;12618;54.386;18.394;2023-06-22T00:20:51;99786.21;;;19.04;100.00
24440;BME280;12618;54.386;18.394;2023-06-22T00:23:28;99789.86;;;19.01;100.00
24440;BME280;12618;54.386;18.394;2023-06-22T00:26:05;99788.50;;;18.98;100.00
24440;BME280;12618;54.386;18.394;2023-06-22T00:28:39;99796.65;;;18.96;100.00
24440;BME280;12618;54.386;18.394;2023-06-22T00:31:11;99802.15;;;18.92;100.00
24440;BME280;12618;54.386;18.394;2023-06-22T00:33:46;99797.91;;;18.84;100.00
24440;BME280;12618;54.386;18.394;2023-06-22T00:36:17;99799.39;;;18.81;100.00
24440;BME280;12618;54.386;18.394;2023-06-22T00:38:50;99803.04;;;18.78;100.00
24440;BME280;12618;54.386;18.394;2023-06-22T00:41:22;99806.65;;;18.74;100.00
24440;BME280;12618;54.386;18.394;2023-06-22T00:43:54;99811.23;;;18.72;100.00
24440;BME280;12618;54.386;18.394;2023-06-22T00:46:26;99805.33;;;18.70;100.00
24440;BME280;12618;54.386;18.394;2023-06-22T00:48:57;99808.89;;;18.68;100.00
24440;BME280;12618;54.386;18.394;2023-06-22T00:51:29;99806.95;;;18.66;100.00
24440;BME280;12618;54.386;18.394;2023-06-22T00:54:01;99808.84;;;18.64;100.00
24440;BME280;12618;54.386;18.394;2023-06-22T00:56:33;99807.95;;;18.60;100.00
24440;BME280;12618;54.386;18.394;2023-06-22T00:59:05;99812.59;;;18.55;100.00
24440;BME280;12618;54.386;18.394;2023-06-22T01:01:37;99817.63;;;18.52;100.00
24440;BME280;12618;54.386;18.394;2023-06-22T01:04:12;99816.14;;;18.50;100.00
24440;BME280;12618;54.386;18.394;2023-06-22T01:09:56;99820.83;;;18.47;100.00
24440;BME280;12618;54.386;18.394;2023-06-22T01:12:34;99815.02;;;18.46;100.00
24440;BME280;12618;54.386;18.394;2023-06-22T01:15:28;99821.62;;;18.46;100.00
24440;BME280;12618;54.386;18.394;2023-06-22T01:18:04;99823.24;;;18.46;100.00
24440;BME280;12618;54.386;18.394;2023-06-22T01:20:36;99826.09;;;18.46;100.00
24440;BME280;12618;54.386;18.394;2023-06-22T01:23:33;99823.15;;;18.45;100.00
24440;BME280;12618;54.386;18.394;2023-06-22T01:26:22;99822.38;;;18.44;100.00
24440;BME280;12618;54.386;18.394;2023-06-22T01:29:00;99824.27;;;18.40;100.00
24440;BME280;12618;54.386;18.394;2023-06-22T01:31:32;99825.13;;;18.36;100.00
24440;BME280;12618;54.386;18.394;2023-06-22T01:34:08;99827.41;;;18.32;100.00
24440;BME280;12618;54.386;18.394;2023-06-22T01:36:41;99826.66;;;18.33;100.00
24440;BME280;12618;54.386;18.394;2023-06-22T01:39:15;99826.69;;;18.32;100.00
24440;BME280;12618;54.386;18.394;2023-06-22T01:41:47;99831.39;;;18.31;100.00
24440;BME280;12618;54.386;18.394;2023-06-22T01:44:20;99825.73;;;18.26;100.00
24440;BME280;12618;54.386;18.394;2023-06-22T01:46:53;99825.63;;;18.23;100.00
24440;BME280;12618;54.386;18.394;2023-06-22T01:49:28;99823.75;;;18.19;100.00
24440;BME280;12618;54.386;18.394;2023-06-22T01:51:59;99831.91;;;18.15;100.00
24440;BME280;12618;54.386;18.394;2023-06-22T01:54:31;99828.65;;;18.11;100.00
24440;BME280;12618;54.386;18.394;2023-06-22T01:57:03;99831.38;;;18.08;100.00
24440;BME280;12618;54.386;18.394;2023-06-22T02:00:00;99832.39;;;18.04;100.00
24440;BME280;12618;54.386;18.394;2023-06-22T02:03:03;99829.61;;;17.99;100.00
24440;BME280;12618;54.386;18.394;2023-06-22T02:05:40;99830.20;;;17.98;100.00
24440;BME280;12618;54.386;18.394;2023-06-22T02:08:21;99829.02;;;17.95;100.00
24440;BME280;12618;54.386;18.394;2023-06-22T02:10:55;99832.33;;;17.91;100.00
24440;BME280;12618;54.386;18.394;2023-06-22T02:13:36;99828.46;;;17.89;100.00
24440;BME280;12618;54.386;18.394;2023-06-22T02:16:08;99837.02;;;17.88;100.00
24440;BME280;12618;54.386;18.394;2023-06-22T02:18:48;99834.59;;;17.88;100.00
24440;BME280;12618;54.386;18.394;2023-06-22T02:21:23;99835.27;;;17.88;100.00
24440;BME280;12618;54.386;18.394;2023-06-22T02:23:55;99841.61;;;17.89;100.00
24440;BME280;12618;54.386;18.394;2023-06-22T02:26:27;99844.42;;;17.89;100.00
24440;BME280;12618;54.386;18.394;2023-06-22T02:28:59;99846.70;;;17.90;100.00
24440;BME280;12618;54.386;18.394;2023-06-22T02:31:30;99851.17;;;17.89;100.00
24440;BME280;12618;54.386;18.394;2023-06-22T02:34:02;99857.11;;;17.91;100.00
24440;BME280;12618;54.386;18.394;2023-06-22T02:36:34;99855.92;;;17.92;100.00
24440;BME280;12618;54.386;18.394;2023-06-22T02:39:06;99857.95;;;17.94;100.00
24440;BME280;12618;54.386;18.394;2023-06-22T02:41:37;99860.82;;;17.94;100.00
24440;BME280;12618;54.386;18.394;2023-06-22T02:44:09;99871.63;;;17.94;100.00
24440;BME280;12618;54.386;18.394;2023-06-22T02:46:43;99874.63;;;17.94;100.00
24440;BME280;12618;54.386;18.394;2023-06-22T02:49:15;99874.20;;;17.98;100.00
24440;BME280;12618;54.386;18.394;2023-06-22T02:51:48;99878.05;;;18.03;100.00
24440;BME280;12618;54.386;18.394;2023-06-22T02:54:20;99883.60;;;18.08;100.00
24440;BME280;12618;54.386;18.394;2023-06-22T02:56:52;99887.63;;;18.13;100.00
24440;BME280;12618;54.386;18.394;2023-06-22T02:59:27;99883.72;;;18.17;100.00
24440;BME280;12618;54.386;18.394;2023-06-22T03:01:59;99880.83;;;18.21;100.00
24440;BME280;12618;54.386;18.394;2023-06-22T03:04:35;99879.98;;;18.25;100.00
24440;BME280;12618;54.386;18.394;2023-06-22T03:07:06;99884.02;;;18.25;100.00
24440;BME280;12618;54.386;18.394;2023-06-22T03:09:38;99885.96;;;18.26;100.00
24440;BME280;12618;54.386;18.394;2023-06-22T03:12:10;99886.66;;;18.26;100.00
24440;BME280;12618;54.386;18.394;2023-06-22T03:14:44;99892.40;;;18.25;100.00
24440;BME280;12618;54.386;18.394;2023-06-22T03:17:15;99900.59;;;18.26;100.00
24440;BME280;12618;54.386;18.394;2023-06-22T03:19:47;99899.86;;;18.26;100.00
24440;BME280;12618;54.386;18.394;2023-06-22T03:22:18;99895.90;;;18.26;100.00
24440;BME280;12618;54.386;18.394;2023-06-22T03:24:50;99895.08;;;18.28;100.00
24440;BME280;12618;54.386;18.394;2023-06-22T03:27:22;99905.15;;;18.29;100.00
24440;BME280;12618;54.386;18.394;2023-06-22T03:29:53;99907.59;;;18.32;100.00
24440;BME280;12618;54.386;18.394;2023-06-22T03:32:25;99907.34;;;18.35;100.00
24440;BME280;12618;54.386;18.394;2023-06-22T03:35:02;99912.90;;;18.36;100.00
24440;BME280;12618;54.386;18.394;2023-06-22T03:37:33;99914.09;;;18.40;100.00
24440;BME280;12618;54.386;18.394;2023-06-22T03:40:06;99910.43;;;18.43;100.00
24440;BME280;12618;54.386;18.394;2023-06-22T03:42:38;99916.95;;;18.44;100.00
24440;BME280;12618;54.386;18.394;2023-06-22T03:45:10;99918.52;;;18.45;100.00
24440;BME280;12618;54.386;18.394;2023-06-22T03:47:42;99922.91;;;18.47;100.00
24440;BME280;12618;54.386;18.394;2023-06-22T03:50:14;99934.30;;;18.50;100.00
24440;BME280;12618;54.386;18.394;2023-06-22T03:52:48;99933.35;;;18.53;100.00
24440;BME280;12618;54.386;18.394;2023-06-22T03:55:20;99934.00;;;18.59;100.00
24440;BME280;12618;54.386;18.394;2023-06-22T03:58:01;99940.67;;;18.60;100.00
24440;BME280;12618;54.386;18.394;2023-06-22T04:00:37;99944.60;;;18.63;100.00
24440;BME280;12618;54.386;18.394;2023-06-22T04:03:11;99948.10;;;18.66;100.00
24440;BME280;12618;54.386;18.394;2023-06-22T04:05:44;99955.34;;;18.69;100.00
24440;BME280;12618;54.386;18.394;2023-06-22T04:08:16;99960.10;;;18.69;100.00
24440;BME280;12618;54.386;18.394;2023-06-22T04:10:47;99960.52;;;18.68;100.00
24440;BME280;12618;54.386;18.394;2023-06-22T04:13:20;99960.95;;;18.72;100.00
24440;BME280;12618;54.386;18.394;2023-06-22T04:15:51;99958.48;;;18.79;100.00
24440;BME280;12618;54.386;18.394;2023-06-22T04:18:23;99955.88;;;18.89;100.00
24440;BME280;12618;54.386;18.394;2023-06-22T04:20:54;99953.73;;;18.94;100.00
24440;BME280;12618;54.386;18.394;2023-06-22T04:23:26;99951.42;;;18.91;100.00
24440;BME280;12618;54.386;18.394;2023-06-22T04:25:58;99950.45;;;18.89;100.00
24440;BME280;12618;54.386;18.394;2023-06-22T04:28:31;99957.54;;;18.86;100.00
24440;BME280;12618;54.386;18.394;2023-06-22T04:31:06;99953.80;;;18.84;100.00
24440;BME280;12618;54.386;18.394;2023-06-22T04:33:38;99957.84;;;18.89;100.00
24440;BME280;12618;54.386;18.394;2023-06-22T04:36:12;99955.20;;;18.86;100.00
24440;BME280;12618;54.386;18.394;2023-06-22T04:38:46;99956.81;;;18.81;100.00
24440;BME280;12618;54.386;18.394;2023-06-22T04:41:18;99955.14;;;18.82;100.00
24440;BME280;12618;54.386;18.394;2023-06-22T04:43:55;99954.46;;;18.91;100.00
24440;BME280;12618;54.386;18.394;2023-06-22T04:46:31;99955.70;;;18.96;100.00
24440;BME280;12618;54.386;18.394;2023-06-22T04:49:05;99952.33;;;19.00;100.00
24440;BME280;12618;54.386;18.394;2023-06-22T04:51:43;99957.14;;;19.05;100.00
24440;BME280;12618;54.386;18.394;2023-06-22T04:54:15;99958.88;;;19.03;100.00
24440;BME280;12618;54.386;18.394;2023-06-22T04:56:47;99957.23;;;19.06;100.00
24440;BME280;12618;54.386;18.394;2023-06-22T04:59:27;99965.80;;;19.12;100.00
24440;BME280;12618;54.386;18.394;2023-06-22T05:02:02;99961.53;;;19.14;100.00
24440;BME280;12618;54.386;18.394;2023-06-22T05:04:34;99952.38;;;19.20;100.00
24440;BME280;12618;54.386;18.394;2023-06-22T05:07:12;99948.42;;;19.24;100.00
24440;BME280;12618;54.386;18.394;2023-06-22T05:09:47;99953.00;;;19.34;100.00
24440;BME280;12618;54.386;18.394;2023-06-22T05:12:19;99946.16;;;19.41;100.00
24440;BME280;12618;54.386;18.394;2023-06-22T05:14:51;99947.35;;;19.49;100.00
24440;BME280;12618;54.386;18.394;2023-06-22T05:17:22;99951.52;;;19.61;100.00
24440;BME280;12618;54.386;18.394;2023-06-22T05:19:54;99958.83;;;19.70;100.00
24440;BME280;12618;54.386;18.394;2023-06-22T05:22:28;99956.01;;;19.74;100.00
24440;BME280;12618;54.386;18.394;2023-06-22T05:25:00;99955.70;;;19.74;100.00
24440;BME280;12618;54.386;18.394;2023-06-22T05:27:34;99958.98;;;19.75;99.92
24440;BME280;12618;54.386;18.394;2023-06-22T05:30:13;99954.98;;;19.78;99.99
24440;BME280;12618;54.386;18.394;2023-06-22T05:32:45;99956.95;;;19.78;99.64
24440;BME280;12618;54.386;18.394;2023-06-22T05:35:19;99959.70;;;19.79;99.98
24440;BME280;12618;54.386;18.394;2023-06-22T05:37:50;99949.16;;;19.84;99.74
24440;BME280;12618;54.386;18.394;2023-06-22T05:40:22;99957.70;;;19.86;99.66
24440;BME280;12618;54.386;18.394;2023-06-22T05:42:54;99960.25;;;19.94;99.43
24440;BME280;12618;54.386;18.394;2023-06-22T05:45:26;99957.16;;;19.97;99.11
24440;BME280;12618;54.386;18.394;2023-06-22T05:47:58;99961.75;;;20.01;97.99
24440;BME280;12618;54.386;18.394;2023-06-22T05:50:29;99961.35;;;20.09;96.79
24440;BME280;12618;54.386;18.394;2023-06-22T05:53:02;99960.77;;;20.20;97.20
24440;BME280;12618;54.386;18.394;2023-06-22T05:55:34;99968.41;;;20.24;94.64
24440;BME280;12618;54.386;18.394;2023-06-22T05:58:06;99976.42;;;20.24;94.39
24440;BME280;12618;54.386;18.394;2023-06-22T06:00:38;99978.23;;;20.16;92.84
24440;BME280;12618;54.386;18.394;2023-06-22T06:03:10;99977.66;;;20.16;93.47
24440;BME280;12618;54.386;18.394;2023-06-22T06:05:45;99977.79;;;20.23;93.75
24440;BME280;12618;54.386;18.394;2023-06-22T06:08:17;99977.45;;;20.34;94.90
24440;BME280;12618;54.386;18.394;2023-06-22T06:10:49;99978.06;;;20.46;91.56
24440;BME280;12618;54.386;18.394;2023-06-22T06:13:24;99980.48;;;20.58;92.29
24440;BME280;12618;54.386;18.394;2023-06-22T06:15:56;99982.27;;;20.69;89.83
24440;BME280;12618;54.386;18.394;2023-06-22T06:18:28;99976.23;;;20.82;89.28
24440;BME280;12618;54.386;18.394;2023-06-22T06:21:00;99979.10;;;20.94;89.09
24440;BME280;12618;54.386;18.394;2023-06-22T06:23:32;99978.45;;;20.97;86.29
24440;BME280;12618;54.386;18.394;2023-06-22T06:26:03;99981.02;;;20.98;85.30
24440;BME280;12618;54.386;18.394;2023-06-22T06:28:38;99979.98;;;20.92;85.87
24440;BME280;12618;54.386;18.394;2023-06-22T06:31:10;99984.46;;;20.88;85.54
24440;BME280;12618;54.386;18.394;2023-06-22T06:33:43;99984.14;;;20.85;85.28
24440;BME280;12618;54.386;18.394;2023-06-22T06:36:18;99979.77;;;20.88;85.56
24440;BME280;12618;54.386;18.394;2023-06-22T06:38:49;99979.25;;;20.96;84.97
24440;BME280;12618;54.386;18.394;2023-06-22T06:41:21;99973.04;;;21.23;85.18
24440;BME280;12618;54.386;18.394;2023-06-22T06:43:56;99974.91;;;21.54;81.28
24440;BME280;12618;54.386;18.394;2023-06-22T06:46:28;99981.91;;;21.85;81.32
24440;BME280;12618;54.386;18.394;2023-06-22T06:49:02;99993.19;;;22.32;78.23
24440;BME280;12618;54.386;18.394;2023-06-22T06:51:35;99995.13;;;22.77;75.90
24440;BME280;12618;54.386;18.394;2023-06-22T06:54:07;99999.42;;;23.06;70.22
24440;BME280;12618;54.386;18.394;2023-06-22T06:56:39;100010.54;;;23.36;69.31
24440;BME280;12618;54.386;18.394;2023-06-22T06:59:11;100008.86;;;23.68;67.59
24440;BME280;12618;54.386;18.394;2023-06-22T07:01:42;100008.80;;;23.81;67.59
24440;BME280;12618;54.386;18.394;2023-06-22T07:04:16;100016.77;;;24.20;67.27
24440;BME280;12618;54.386;18.394;2023-06-22T07:06:48;100016.39;;;24.87;65.15
24440;BME280;12618;54.386;18.394;2023-06-22T07:09:20;100010.90;;;25.52;60.66
24440;BME280;12618;54.386;18.394;2023-06-22T07:11:51;100013.09;;;25.92;60.27
24440;BME280;12618;54.386;18.394;2023-06-22T07:14:23;100013.49;;;26.34;55.00
24440;BME280;12618;54.386;18.394;2023-06-22T07:16:55;100007.30;;;26.72;53.32
24440;BME280;12618;54.386;18.394;2023-06-22T07:19:29;100013.55;;;26.92;50.58
24440;BME280;12618;54.386;18.394;2023-06-22T07:22:03;100019.91;;;26.92;48.98
24440;BME280;12618;54.386;18.394;2023-06-22T07:24:35;100023.38;;;27.46;52.23
24440;BME280;12618;54.386;18.394;2023-06-22T07:27:15;100017.33;;;27.91;48.05
24440;BME280;12618;54.386;18.394;2023-06-22T07:29:50;100018.88;;;28.45;50.16
24440;BME280;12618;54.386;18.394;2023-06-22T07:32:23;100028.93;;;28.84;46.28
24440;BME280;12618;54.386;18.394;2023-06-22T07:34:55;100030.86;;;29.13;45.88
24440;BME280;12618;54.386;18.394;2023-06-22T07:37:27;100029.20;;;29.12;44.07
24440;BME280;12618;54.386;18.394;2023-06-22T07:40:02;100023.41;;;29.13;43.69
24440;BME280;12618;54.386;18.394;2023-06-22T07:42:38;100027.41;;;29.07;42.50
24440;BME280;12618;54.386;18.394;2023-06-22T07:45:10;100035.16;;;28.44;42.28
24440;BME280;12618;54.386;18.394;2023-06-22T07:47:42;100036.33;;;28.54;42.77
24440;BME280;12618;54.386;18.394;2023-06-22T07:50:14;100036.02;;;28.87;43.03
24440;BME280;12618;54.386;18.394;2023-06-22T07:52:45;100036.11;;;29.07;40.58
24440;BME280;12618;54.386;18.394;2023-06-22T07:55:18;100042.88;;;29.20;41.47
24440;BME280;12618;54.386;18.394;2023-06-22T07:57:50;100044.59;;;29.65;41.74
24440;BME280;12618;54.386;18.394;2023-06-22T08:00:23;100043.40;;;29.60;39.97
24440;BME280;12618;54.386;18.394;2023-06-22T08:02:58;100046.53;;;30.01;42.06
24440;BME280;12618;54.386;18.394;2023-06-22T08:05:32;100045.24;;;30.70;40.56
24440;BME280;12618;54.386;18.394;2023-06-22T08:08:05;100039.91;;;31.20;38.21
24440;BME280;12618;54.386;18.394;2023-06-22T08:10:42;100047.33;;;30.64;36.72
24440;BME280;12618;54.386;18.394;2023-06-22T08:13:22;100051.19;;;30.32;37.40
24440;BME280;12618;54.386;18.394;2023-06-22T08:15:54;100055.32;;;29.52;38.32
24440;BME280;12618;54.386;18.394;2023-06-22T08:18:29;100058.77;;;28.81;38.91
24440;BME280;12618;54.386;18.394;2023-06-22T08:21:01;100051.22;;;28.52;40.32
24440;BME280;12618;54.386;18.394;2023-06-22T08:23:36;100048.09;;;28.61;39.74
24440;BME280;12618;54.386;18.394;2023-06-22T08:26:10;100047.09;;;28.59;40.67
24440;BME280;12618;54.386;18.394;2023-06-22T08:28:42;100052.10;;;28.79;40.29
24440;BME280;12618;54.386;18.394;2023-06-22T08:31:14;100050.10;;;28.75;40.13
24440;BME280;12618;54.386;18.394;2023-06-22T08:33:46;100046.08;;;29.13;40.32
24440;BME280;12618;54.386;18.394;2023-06-22T08:36:20;100041.24;;;29.88;40.13
24440;BME280;12618;54.386;18.394;2023-06-22T08:38:52;100043.52;;;30.54;38.12
24440;BME280;12618;54.386;18.394;2023-06-22T08:41:23;100043.76;;;31.09;36.31
24440;BME280;12618;54.386;18.394;2023-06-22T08:43:55;100044.11;;;31.27;34.26
24440;BME280;12618;54.386;18.394;2023-06-22T08:46:27;100051.05;;;31.30;34.22
24440;BME280;12618;54.386;18.394;2023-06-22T08:49:05;100061.91;;;31.29;33.45
24440;BME280;12618;54.386;18.394;2023-06-22T08:51:37;100060.27;;;31.22;33.76
24440;BME280;12618;54.386;18.394;2023-06-22T08:54:09;100052.36;;;31.43;34.18
24440;BME280;12618;54.386;18.394;2023-06-22T08:56:42;100055.74;;;31.86;34.40
24440;BME280;12618;54.386;18.394;2023-06-22T08:59:15;100054.67;;;32.17;33.71
24440;BME280;12618;54.386;18.394;2023-06-22T09:01:47;100057.70;;;32.19;32.55
24440;BME280;12618;54.386;18.394;2023-06-22T09:04:20;100057.10;;;32.51;33.06
24440;BME280;12618;54.386;18.394;2023-06-22T09:06:54;100056.28;;;32.76;31.99
24440;BME280;12618;54.386;18.394;2023-06-22T09:09:25;100054.23;;;32.67;32.17
24440;BME280;12618;54.386;18.394;2023-06-22T09:11:57;100048.22;;;32.66;32.69
24440;BME280;12618;54.386;18.394;2023-06-22T09:14:29;100045.95;;;32.50;32.67
24440;BME280;12618;54.386;18.394;2023-06-22T09:17:01;100050.42;;;32.63;32.64
24440;BME280;12618;54.386;18.394;2023-06-22T09:19:33;100054.84;;;32.42;31.40
24440;BME280;12618;54.386;18.394;2023-06-22T09:22:05;100043.23;;;32.01;32.35
24440;BME280;12618;54.386;18.394;2023-06-22T09:24:37;100043.15;;;31.99;32.83
24440;BME280;12618;54.386;18.394;2023-06-22T09:27:09;100047.45;;;32.13;32.40
24440;BME280;12618;54.386;18.394;2023-06-22T09:29:41;100050.46;;;32.00;32.32
24440;BME280;12618;54.386;18.394;2023-06-22T09:32:13;100051.52;;;31.89;32.50
24440;BME280;12618;54.386;18.394;2023-06-22T09:34:45;100042.30;;;31.88;32.48
24440;BME280;12618;54.386;18.394;2023-06-22T09:37:16;100043.92;;;31.91;33.03
24440;BME280;12618;54.386;18.394;2023-06-22T09:39:48;100040.48;;;32.03;32.70
24440;BME280;12618;54.386;18.394;2023-06-22T09:42:20;100034.63;;;31.85;33.02
24440;BME280;12618;54.386;18.394;2023-06-22T09:44:55;100030.20;;;31.76;33.64
24440;BME280;12618;54.386;18.394;2023-06-22T09:47:27;100029.23;;;31.92;32.96
24440;BME280;12618;54.386;18.394;2023-06-22T09:49:59;100031.17;;;31.77;32.80
24440;BME280;12618;54.386;18.394;2023-06-22T09:52:31;100032.73;;;31.77;32.87
24440;BME280;12618;54.386;18.394;2023-06-22T09:55:13;100034.90;;;31.82;33.32
24440;BME280;12618;54.386;18.394;2023-06-22T09:57:47;100035.44;;;31.47;33.17
24440;BME280;12618;54.386;18.394;2023-06-22T10:00:19;100034.09;;;31.91;33.46
24440;BME280;12618;54.386;18.394;2023-06-22T10:02:51;100032.81;;;32.07;32.92
24440;BME280;12618;54.386;18.394;2023-06-22T10:05:24;100030.16;;;32.32;32.40
24440;BME280;12618;54.386;18.394;2023-06-22T10:07:57;100034.10;;;32.01;31.13
24440;BME280;12618;54.386;18.394;2023-06-22T10:10:28;100032.18;;;31.95;32.27
24440;BME280;12618;54.386;18.394;2023-06-22T10:13:07;100023.77;;;31.60;32.47
24440;BME280;12618;54.386;18.394;2023-06-22T10:15:42;100027.86;;;31.37;33.02
24440;BME280;12618;54.386;18.394;2023-06-22T10:18:14;100039.73;;;31.31;32.41
24440;BME280;12618;54.386;18.394;2023-06-22T10:20:48;100043.11;;;30.80;32.97
24440;BME280;12618;54.386;18.394;2023-06-22T10:23:26;100040.35;;;30.66;33.47
24440;BME280;12618;54.386;18.394;2023-06-22T10:25:57;100040.28;;;30.31;33.74
24440;BME280;12618;54.386;18.394;2023-06-22T10:28:29;100035.90;;;30.08;34.34
24440;BME280;12618;54.386;18.394;2023-06-22T10:31:03;100034.73;;;29.81;34.93
24440;BME280;12618;54.386;18.394;2023-06-22T10:33:35;100036.67;;;30.09;35.24
24440;BME280;12618;54.386;18.394;2023-06-22T10:36:07;100033.64;;;30.35;34.75
24440;BME280;12618;54.386;18.394;2023-06-22T10:38:42;100038.92;;;30.44;34.27
24440;BME280;12618;54.386;18.394;2023-06-22T10:41:14;100034.55;;;30.54;34.40
24440;BME280;12618;54.386;18.394;2023-06-22T10:43:46;100032.08;;;30.35;34.39
24440;BME280;12618;54.386;18.394;2023-06-22T10:46:17;100038.50;;;30.07;34.15
24440;BME280;12618;54.386;18.394;2023-06-22T10:48:49;100043.75;;;30.12;33.79
24440;BME280;12618;54.386;18.394;2023-06-22T10:51:21;100033.41;;;30.42;33.87
24440;BME280;12618;54.386;18.394;2023-06-22T10:53:53;100032.43;;;30.63;33.22
24440;BME280;12618;54.386;18.394;2023-06-22T10:56:24;100031.14;;;30.73;33.10
24440;BME280;12618;54.386;18.394;2023-06-22T10:58:56;100035.23;;;30.63;32.28
24440;BME280;12618;54.386;18.394;2023-06-22T11:01:28;100041.61;;;30.49;32.50
24440;BME280;12618;54.386;18.394;2023-06-22T11:04:06;100036.11;;;30.36;32.68
24440;BME280;12618;54.386;18.394;2023-06-22T11:06:38;100038.02;;;30.43;32.55
24440;BME280;12618;54.386;18.394;2023-06-22T11:09:10;100033.71;;;30.31;32.50
24440;BME280;12618;54.386;18.394;2023-06-22T11:11:49;100027.65;;;30.24;32.30
24440;BME280;12618;54.386;18.394;2023-06-22T11:14:21;100026.52;;;30.17;31.28
24440;BME280;12618;54.386;18.394;2023-06-22T11:16:53;100020.60;;;30.08;31.80
24440;BME280;12618;54.386;18.394;2023-06-22T11:19:25;100019.20;;;30.03;31.91
24440;BME280;12618;54.386;18.394;2023-06-22T11:21:57;100016.16;;;30.02;32.12
24440;BME280;12618;54.386;18.394;2023-06-22T11:24:29;100018.62;;;30.08;32.08
24440;BME280;12618;54.386;18.394;2023-06-22T11:27:01;100014.20;;;30.13;31.35
24440;BME280;12618;54.386;18.394;2023-06-22T11:29:32;100015.05;;;30.18;31.60
24440;BME280;12618;54.386;18.394;2023-06-22T11:32:08;100017.06;;;30.22;31.92
24440;BME280;12618;54.386;18.394;2023-06-22T11:34:43;100014.36;;;30.09;31.92
24440;BME280;12618;54.386;18.394;2023-06-22T11:37:15;100024.27;;;30.11;32.33
24440;BME280;12618;54.386;18.394;2023-06-22T11:39:47;100022.48;;;29.93;31.78
24440;BME280;12618;54.386;18.394;2023-06-22T11:42:36;100022.18;;;29.90;32.43
24440;BME280;12618;54.386;18.394;2023-06-22T11:45:08;100018.72;;;30.09;32.47
24440;BME280;12618;54.386;18.394;2023-06-22T11:47:40;100013.23;;;30.23;32.66
24440;BME280;12618;54.386;18.394;2023-06-22T11:50:12;100012.52;;;30.45;32.88
24440;BME280;12618;54.386;18.394;2023-06-22T11:52:44;100012.73;;;30.55;32.09
24440;BME280;12618;54.386;18.394;2023-06-22T11:55:16;100009.34;;;30.56;32.45
24440;BME280;12618;54.386;18.394;2023-06-22T11:57:56;100020.88;;;30.45;32.65
24440;BME280;12618;54.386;18.394;2023-06-22T12:00:31;100012.98;;;30.28;32.63
24440;BME280;12618;54.386;18.394;2023-06-22T12:03:12;100007.17;;;30.07;32.78
24440;BME280;12618;54.386;18.394;2023-06-22T12:05:50;100009.19;;;29.88;32.99
24440;BME280;12618;54.386;18.394;2023-06-22T12:08:23;100008.91;;;29.84;33.28
24440;BME280;12618;54.386;18.394;2023-06-22T12:10:56;100008.42;;;29.85;33.40
24440;BME280;12618;54.386;18.394;2023-06-22T12:13:29;100013.00;;;29.86;33.10
24440;BME280;12618;54.386;18.394;2023-06-22T12:16:01;100006.98;;;29.73;32.21
24440;BME280;12618;54.386;18.394;2023-06-22T12:18:32;100003.91;;;29.65;31.36
24440;BME280;12618;54.386;18.394;2023-06-22T12:21:04;100009.84;;;29.64;30.75
24440;BME280;12618;54.386;18.394;2023-06-22T12:23:36;100001.55;;;29.64;31.40
24440;BME280;12618;54.386;18.394;2023-06-22T12:26:08;100000.37;;;29.80;32.03
24440;BME280;12618;54.386;18.394;2023-06-22T12:28:39;99996.64;;;29.92;31.55
24440;BME280;12618;54.386;18.394;2023-06-22T12:31:11;99994.70;;;29.95;31.41
24440;BME280;12618;54.386;18.394;2023-06-22T12:33:43;99993.20;;;30.04;32.06
24440;BME280;12618;54.386;18.394;2023-06-22T12:36:15;99989.58;;;29.96;31.74
24440;BME280;12618;54.386;18.394;2023-06-22T12:38:48;99992.18;;;29.76;32.00
24440;BME280;12618;54.386;18.394;2023-06-22T12:41:19;99988.27;;;29.77;32.44
24440;BME280;12618;54.386;18.394;2023-06-22T12:43:51;99992.73;;;29.92;31.62
24440;BME280;12618;54.386;18.394;2023-06-22T12:46:23;99990.98;;;29.85;31.09
24440;BME280;12618;54.386;18.394;2023-06-22T12:48:55;99993.55;;;29.92;31.45
24440;BME280;12618;54.386;18.394;2023-06-22T12:51:27;99993.11;;;29.86;30.33
24440;BME280;12618;54.386;18.394;2023-06-22T12:53:58;99984.93;;;29.92;30.97
24440;BME280;12618;54.386;18.394;2023-06-22T12:56:30;99983.55;;;29.94;30.98
24440;BME280;12618;54.386;18.394;2023-06-22T12:59:03;99984.23;;;30.00;31.95
24440;BME280;12618;54.386;18.394;2023-06-22T13:01:35;99971.54;;;30.19;32.59
24440;BME280;12618;54.386;18.394;2023-06-22T13:04:08;99977.23;;;30.22;32.04
24440;BME280;12618;54.386;18.394;2023-06-22T13:06:42;99976.54;;;30.15;31.80
24440;BME280;12618;54.386;18.394;2023-06-22T13:09:15;99979.70;;;30.06;31.89
24440;BME280;12618;54.386;18.394;2023-06-22T13:11:52;99977.42;;;30.01;32.33
24440;BME280;12618;54.386;18.394;2023-06-22T13:14:24;99970.25;;;29.94;31.53
24440;BME280;12618;54.386;18.394;2023-06-22T13:16:58;99963.55;;;29.84;32.07